createdAt,value
2024-05-09T00:00:46.933Z,16.76
2024-05-09T00:03:16.790Z,16.79
2024-05-09T00:05:46.546Z,16.78
2024-05-09T00:08:16.616Z,16.78
2024-05-09T00:10:46.418Z,16.78
2024-05-09T00:13:16.141Z,16.73
2024-05-09T00:15:48.548Z,16.77
2024-05-09T00:18:18.334Z,16.77
2024-05-09T00:20:48.142Z,16.76
2024-05-09T00:23:17.873Z,16.77
2024-05-09T00:25:47.639Z,16.75
2024-05-09T00:28:17.365Z,16.75
2024-05-09T00:30:49.626Z,16.77
2024-05-09T00:33:19.487Z,16.75
2024-05-09T00:35:49.509Z,16.75
2024-05-09T00:38:19.214Z,16.72
2024-05-09T00:40:48.946Z,16.75
2024-05-09T00:43:18.669Z,16.74
2024-05-09T00:45:51.215Z,16.74
2024-05-09T00:48:21.675Z,16.74
2024-05-09T00:50:53.983Z,16.74
2024-05-09T00:53:23.763Z,16.74
2024-05-09T00:55:53.587Z,16.73
2024-05-09T00:58:24.667Z,16.72
2024-05-09T01:00:57.039Z,16.73
2024-05-09T01:03:27.007Z,16.70
2024-05-09T01:05:57.061Z,16.74
2024-05-09T01:08:26.722Z,16.73
2024-05-09T01:10:56.566Z,16.72
2024-05-09T01:13:26.272Z,16.71
2024-05-09T01:15:58.557Z,16.70
2024-05-09T01:18:28.304Z,16.66
2024-05-09T01:20:58.111Z,16.71
2024-05-09T01:23:30.558Z,16.70
2024-05-09T01:26:00.556Z,16.72
2024-05-09T01:28:30.255Z,16.69
2024-05-09T01:30:59.925Z,16.68
2024-05-09T01:33:29.839Z,16.68
2024-05-09T01:35:59.792Z,16.69
2024-05-09T01:38:32.231Z,16.68
2024-05-09T01:41:02.020Z,16.67
2024-05-09T01:43:31.741Z,16.66
2024-05-09T01:46:01.385Z,16.68
2024-05-09T01:48:31.272Z,16.65
2024-05-09T01:51:01.062Z,16.65
2024-05-09T01:53:33.592Z,16.66
2024-05-09T01:56:03.394Z,16.65
2024-05-09T01:58:33.109Z,16.64
2024-05-09T02:01:02.810Z,16.63
2024-05-09T02:03:32.679Z,16.62
2024-05-09T02:06:02.600Z,16.62
2024-05-09T02:08:35.156Z,16.59
2024-05-09T02:11:04.972Z,16.62
2024-05-09T02:13:34.748Z,16.62
2024-05-09T02:16:04.427Z,16.60
2024-05-09T02:18:34.179Z,16.59
2024-05-09T02:21:04.339Z,16.59
2024-05-09T02:23:36.790Z,16.60
2024-05-09T02:26:06.838Z,16.59
2024-05-09T02:28:36.566Z,16.60
2024-05-09T02:31:06.455Z,16.59
2024-05-09T02:33:36.476Z,16.57
2024-05-09T02:36:07.105Z,16.58
2024-05-09T02:38:36.819Z,16.58
2024-05-09T02:41:06.883Z,16.59
2024-05-09T02:43:34.098Z,16.57
2024-05-09T02:46:03.760Z,16.57
2024-05-09T02:48:30.958Z,16.57
2024-05-09T02:51:00.804Z,16.56
2024-05-09T02:53:27.901Z,16.55
2024-05-09T02:56:00.265Z,16.54
2024-05-09T02:58:27.454Z,16.55
2024-05-09T03:00:57.104Z,16.55
2024-05-09T03:03:24.648Z,16.56
2024-05-09T03:05:54.610Z,16.55
2024-05-09T03:08:21.783Z,16.41
2024-05-09T03:10:51.502Z,16.53
2024-05-09T03:13:21.215Z,16.53
2024-05-09T03:15:50.925Z,16.50
2024-05-09T03:18:18.070Z,16.51
2024-05-09T03:20:47.875Z,16.53
2024-05-09T03:23:15.297Z,16.52
2024-05-09T03:25:45.006Z,16.51
2024-05-09T03:28:12.229Z,16.51
2024-05-09T03:30:44.577Z,16.50
2024-05-09T03:33:12.908Z,16.51
2024-05-09T03:35:43.558Z,16.51
2024-05-09T03:38:13.354Z,16.50
2024-05-09T03:40:48.835Z,16.50
2024-05-09T03:43:19.571Z,16.47
2024-05-09T03:45:52.375Z,16.47
2024-05-09T03:48:19.701Z,16.47
2024-05-09T03:50:50.586Z,16.47
2024-05-09T03:53:17.838Z,16.45
2024-05-09T03:55:47.627Z,16.45
2024-05-09T03:58:14.810Z,16.41
2024-05-09T04:00:44.667Z,16.45
2024-05-09T04:03:14.802Z,16.43
2024-05-09T04:05:44.964Z,16.43
2024-05-09T04:08:12.297Z,16.43
2024-05-09T04:10:42.096Z,16.42
2024-05-09T04:13:09.766Z,16.42
2024-05-09T04:15:39.440Z,16.41
2024-05-09T04:18:06.706Z,16.41
2024-05-09T04:20:40.981Z,16.37
2024-05-09T04:23:11.289Z,16.39
2024-05-09T04:25:43.307Z,16.40
2024-05-09T04:28:10.430Z,16.39
2024-05-09T04:30:41.569Z,16.38
2024-05-09T04:33:11.889Z,16.39
2024-05-09T04:35:46.055Z,16.36
2024-05-09T04:38:14.111Z,16.36
2024-05-09T04:40:44.374Z,16.36
2024-05-09T04:43:14.321Z,16.36
2024-05-09T04:45:44.138Z,16.36
2024-05-09T04:48:11.611Z,16.35
2024-05-09T04:50:41.511Z,16.35
2024-05-09T04:53:15.384Z,16.35
2024-05-09T04:55:45.249Z,16.35
2024-05-09T04:58:12.575Z,16.31
2024-05-09T05:00:42.388Z,16.34
2024-05-09T05:03:12.911Z,16.33
2024-05-09T05:05:46.113Z,16.33
2024-05-09T05:08:17.707Z,16.34
2024-05-09T05:10:49.294Z,16.34
2024-05-09T05:13:18.291Z,16.33
2024-05-09T05:15:48.823Z,16.33
2024-05-09T05:18:16.257Z,16.33
2024-05-09T05:20:46.407Z,16.33
2024-05-09T05:23:19.772Z,16.31
2024-05-09T05:25:50.169Z,16.31
2024-05-09T05:28:17.481Z,16.31
2024-05-09T05:30:47.342Z,16.32
2024-05-09T05:33:15.710Z,16.29
2024-05-09T05:35:45.590Z,16.30
2024-05-09T05:38:17.994Z,16.26
2024-05-09T05:40:45.218Z,16.22
2024-05-09T05:43:19.129Z,16.30
2024-05-09T05:45:46.279Z,16.31
2024-05-09T05:48:17.222Z,16.30
2024-05-09T05:50:44.978Z,16.29
2024-05-09T05:53:14.781Z,16.31
2024-05-09T05:55:44.659Z,16.30
2024-05-09T05:58:14.649Z,16.30
2024-05-09T06:00:42.684Z,16.31
2024-05-09T06:03:14.343Z,16.30
2024-05-09T06:05:43.962Z,16.30
2024-05-09T06:08:14.345Z,16.31
2024-05-09T06:10:44.443Z,16.27
2024-05-09T06:13:15.639Z,16.23
2024-05-09T06:15:43.644Z,16.28
2024-05-09T06:18:14.024Z,16.30
2024-05-09T06:20:42.767Z,16.28
2024-05-09T06:23:13.685Z,16.28
2024-05-09T06:25:41.883Z,16.27
2024-05-09T06:28:14.373Z,16.28
2024-05-09T06:30:42.818Z,16.28
2024-05-09T06:33:15.709Z,16.29
2024-05-09T06:35:44.072Z,16.30
2024-05-09T06:38:14.083Z,16.29
2024-05-09T06:40:43.649Z,16.29
2024-05-09T06:43:19.148Z,16.29
2024-05-09T06:45:47.852Z,16.32
2024-05-09T06:48:20.211Z,16.33
2024-05-09T06:50:48.069Z,16.32
2024-05-09T06:53:18.134Z,16.33
2024-05-09T06:55:45.537Z,16.35
2024-05-09T06:58:18.815Z,16.35
2024-05-09T07:00:45.939Z,16.36
2024-05-09T07:03:18.418Z,16.37
2024-05-09T07:05:47.822Z,16.38
2024-05-09T07:08:19.505Z,16.41
2024-05-09T07:10:47.361Z,16.41
2024-05-09T07:13:20.209Z,16.43
2024-05-09T07:15:47.779Z,16.42
2024-05-09T07:18:20.144Z,16.44
2024-05-09T07:20:49.133Z,16.45
2024-05-09T07:23:19.867Z,16.46
2024-05-09T07:25:47.449Z,16.46
2024-05-09T07:28:20.448Z,16.47
2024-05-09T07:30:48.068Z,16.48
2024-05-09T07:33:22.773Z,16.49
2024-05-09T07:35:51.299Z,16.49
2024-05-09T07:38:21.591Z,16.51
2024-05-09T07:40:49.063Z,16.51
2024-05-09T07:43:21.845Z,16.52
2024-05-09T07:45:53.570Z,16.50
2024-05-09T07:50:01.049Z,16.53
2024-05-09T07:53:49.364Z,16.55
2024-05-09T07:56:21.920Z,16.56
2024-05-09T07:58:56.473Z,16.58
2024-05-09T08:01:26.382Z,16.59
2024-05-09T08:03:57.064Z,16.60
2024-05-09T08:06:24.718Z,16.60
2024-05-09T08:08:54.423Z,16.62
2024-05-09T08:11:21.634Z,16.64
2024-05-09T08:13:51.406Z,16.65
2024-05-09T08:16:21.528Z,16.67
2024-05-09T08:18:51.534Z,16.66
2024-05-09T08:21:19.377Z,16.69
2024-05-09T08:23:49.381Z,16.70
2024-05-09T08:26:16.639Z,16.71
2024-05-09T08:28:46.613Z,16.71
2024-05-09T08:31:14.129Z,16.73
2024-05-09T08:33:49.089Z,16.74
2024-05-09T08:36:16.359Z,16.75
2024-05-09T08:38:46.086Z,16.78
2024-05-09T08:41:14.042Z,16.79
2024-05-09T08:43:44.080Z,16.80
2024-05-09T08:46:12.781Z,16.80
2024-05-09T08:48:43.344Z,16.82
2024-05-09T08:51:14.125Z,16.83
2024-05-09T08:53:43.836Z,16.84
2024-05-09T08:56:11.024Z,16.87
2024-05-09T08:58:40.792Z,16.87
2024-05-09T09:01:08.034Z,16.83
2024-05-09T09:03:38.041Z,16.91
2024-05-09T09:06:06.779Z,16.85
2024-05-09T09:08:39.863Z,16.94
2024-05-09T09:11:07.159Z,16.95
2024-05-09T09:13:36.972Z,16.98
2024-05-09T09:16:04.958Z,16.96
2024-05-09T09:18:34.974Z,17.01
2024-05-09T09:21:02.978Z,17.01
2024-05-09T09:23:32.830Z,17.03
2024-05-09T09:26:02.619Z,17.05
2024-05-09T09:28:32.466Z,17.05
2024-05-09T09:31:03.256Z,17.07
2024-05-09T09:33:36.037Z,17.08
2024-05-09T09:36:04.985Z,17.10
2024-05-09T09:38:35.850Z,17.11
2024-05-09T09:41:07.042Z,17.12
2024-05-09T09:43:36.904Z,17.14
2024-05-09T09:46:04.381Z,17.15
2024-05-09T09:48:34.572Z,17.16
2024-05-09T09:51:01.861Z,17.18
2024-05-09T09:53:31.635Z,17.18
2024-05-09T09:55:59.205Z,17.21
2024-05-09T09:58:31.795Z,17.18
2024-05-09T10:00:59.211Z,17.22
2024-05-09T10:03:29.802Z,17.20
2024-05-09T10:05:57.073Z,17.24
2024-05-09T10:08:26.863Z,17.24
2024-05-09T10:10:54.212Z,17.23
2024-05-09T10:13:24.109Z,17.27
2024-05-09T10:15:54.483Z,17.28
2024-05-09T10:18:28.384Z,17.30
2024-05-09T10:20:58.009Z,17.32
2024-05-09T10:23:28.589Z,17.33
2024-05-09T10:25:57.296Z,17.33
2024-05-09T10:28:30.096Z,17.34
2024-05-09T10:31:07.243Z,17.34
2024-05-09T10:33:41.884Z,17.36
2024-05-09T10:36:12.711Z,17.36
2024-05-09T10:38:43.015Z,17.38
2024-05-09T10:41:11.113Z,17.37
2024-05-09T10:43:41.661Z,17.39
2024-05-09T10:46:11.739Z,17.40
2024-05-09T10:48:42.333Z,17.40
2024-05-09T10:51:09.492Z,17.41
2024-05-09T10:53:45.220Z,17.42
2024-05-09T10:56:13.339Z,17.38
2024-05-09T10:58:43.148Z,17.43
2024-05-09T11:01:13.551Z,17.44
2024-05-09T11:03:43.742Z,17.45
2024-05-09T11:06:11.273Z,17.45
2024-05-09T11:08:40.973Z,17.45
2024-05-09T11:11:08.862Z,17.46
2024-05-09T11:13:39.377Z,17.46
2024-05-09T11:16:07.427Z,17.46
2024-05-09T11:18:40.439Z,17.47
2024-05-09T11:21:12.310Z,17.48
2024-05-09T11:23:42.224Z,17.47
2024-05-09T11:26:10.634Z,17.49
2024-05-09T11:28:40.455Z,17.49
2024-05-09T11:31:08.907Z,17.49
2024-05-09T11:33:42.461Z,17.50
2024-05-09T11:36:11.030Z,17.50
2024-05-09T11:38:40.782Z,17.51
2024-05-09T11:41:07.910Z,17.49
2024-05-09T11:43:37.542Z,17.50
2024-05-09T11:46:05.103Z,17.50
2024-05-09T11:48:34.995Z,17.48
2024-05-09T11:51:05.335Z,17.51
2024-05-09T11:53:35.035Z,17.50
2024-05-09T11:56:02.211Z,17.51
2024-05-09T11:58:34.364Z,17.51
2024-05-09T12:01:01.985Z,17.52
2024-05-09T12:03:32.132Z,17.52
2024-05-09T12:05:59.603Z,17.52
2024-05-09T12:08:31.925Z,17.52
2024-05-09T12:10:59.032Z,17.54
2024-05-09T12:13:28.801Z,17.55
2024-05-09T12:15:56.002Z,17.55
2024-05-09T12:18:25.789Z,17.55
2024-05-09T12:20:52.949Z,17.56
2024-05-09T12:23:22.655Z,17.56
2024-05-09T12:25:52.357Z,17.57
2024-05-09T12:28:22.495Z,17.57
2024-05-09T12:30:50.702Z,17.58
2024-05-09T12:33:20.989Z,17.58
2024-05-09T12:35:50.730Z,17.59
2024-05-09T12:38:20.885Z,17.55
2024-05-09T12:40:48.183Z,17.58
2024-05-09T12:43:20.627Z,17.61
2024-05-09T12:45:47.859Z,17.61
2024-05-09T12:48:17.762Z,17.60
2024-05-09T12:50:45.043Z,17.61
2024-05-09T12:53:14.792Z,17.58
2024-05-09T12:55:48.764Z,17.62
2024-05-09T12:58:28.550Z,17.61
2024-05-09T13:00:55.796Z,17.62
2024-05-09T13:03:25.672Z,17.62
2024-05-09T13:05:52.865Z,17.60
2024-05-09T13:08:22.954Z,17.64
2024-05-09T13:10:50.322Z,17.64
2024-05-09T13:13:20.203Z,17.64
2024-05-09T13:15:50.238Z,17.64
2024-05-09T13:18:20.010Z,17.65
2024-05-09T13:20:47.166Z,17.65
2024-05-09T13:23:16.837Z,17.66
2024-05-09T13:25:43.934Z,17.64
2024-05-09T13:28:13.708Z,17.67
2024-05-09T13:30:42.226Z,17.64
2024-05-09T13:33:15.268Z,17.67
2024-05-09T13:35:47.029Z,17.64
2024-05-09T13:38:20.768Z,17.68
2024-05-09T13:40:48.698Z,17.70
2024-05-09T13:43:19.027Z,17.68
2024-05-09T13:45:46.419Z,17.70
2024-05-09T13:48:19.648Z,17.67
2024-05-09T13:50:46.984Z,17.71
2024-05-09T13:53:16.894Z,17.71
2024-05-09T13:55:44.058Z,17.71
2024-05-09T13:58:13.779Z,17.68
2024-05-09T14:00:46.562Z,17.73
2024-05-09T14:03:21.533Z,17.72
2024-05-09T14:05:50.113Z,17.70
2024-05-09T14:08:22.155Z,17.73
2024-05-09T14:10:50.002Z,17.70
2024-05-09T14:13:20.275Z,17.73
2024-05-09T14:15:47.595Z,17.72
2024-05-09T14:18:17.488Z,17.70
2024-05-09T14:20:49.840Z,17.72
2024-05-09T14:23:17.685Z,17.72
2024-05-09T14:25:51.185Z,17.71
2024-05-09T14:28:19.686Z,17.72
2024-05-09T14:30:49.540Z,17.72
2024-05-09T14:33:22.281Z,17.73
2024-05-09T14:35:54.884Z,17.72
2024-05-09T14:38:22.285Z,17.72
2024-05-09T14:40:52.196Z,17.73
2024-05-09T14:43:19.399Z,17.73
2024-05-09T14:45:49.212Z,17.72
2024-05-09T14:48:16.497Z,17.73
2024-05-09T14:50:46.271Z,17.73
2024-05-09T14:53:15.998Z,17.73
2024-05-09T14:55:45.893Z,17.70
2024-05-09T14:58:13.617Z,17.74
2024-05-09T15:00:47.984Z,17.72
2024-05-09T15:03:18.406Z,17.74
2024-05-09T15:05:49.264Z,17.75
2024-05-09T15:08:19.511Z,17.75
2024-05-09T15:10:50.268Z,17.75
2024-05-09T15:13:18.022Z,17.75
2024-05-09T15:15:48.198Z,17.76
2024-05-09T15:18:15.592Z,17.76
2024-05-09T15:20:45.923Z,17.77
2024-05-09T15:23:13.407Z,17.77
2024-05-09T15:25:46.882Z,17.77
2024-05-09T15:28:13.989Z,17.77
2024-05-09T15:30:46.381Z,17.78
2024-05-09T15:33:14.423Z,17.79
2024-05-09T15:35:46.204Z,17.77
2024-05-09T15:38:13.378Z,17.78
2024-05-09T15:40:46.007Z,17.79
2024-05-09T15:43:13.394Z,17.80
2024-05-09T15:45:43.398Z,17.80
2024-05-09T15:48:11.289Z,17.80
2024-05-09T15:50:42.647Z,17.81
2024-05-09T15:53:11.026Z,17.78
2024-05-09T15:55:41.501Z,17.81
2024-05-09T15:58:11.465Z,17.81
2024-05-09T16:00:43.408Z,17.83
2024-05-09T16:03:13.385Z,17.83
2024-05-09T16:05:45.503Z,17.82
2024-05-09T16:08:13.578Z,17.82
2024-05-09T16:10:45.872Z,17.80
2024-05-09T16:13:17.544Z,17.82
2024-05-09T16:15:47.761Z,17.83
2024-05-09T16:18:15.091Z,17.83
2024-05-09T16:20:47.231Z,17.83
2024-05-09T16:23:16.438Z,17.83
2024-05-09T16:25:47.938Z,17.83
2024-05-09T16:28:18.205Z,17.84
2024-05-09T16:30:47.981Z,17.83
2024-05-09T16:33:15.219Z,17.83
2024-05-09T16:35:44.920Z,17.41
2024-05-09T16:38:12.451Z,17.84
2024-05-09T16:40:42.233Z,17.84
2024-05-09T16:43:10.213Z,17.83
2024-05-09T16:45:44.584Z,17.75
2024-05-09T16:48:12.868Z,17.83
2024-05-09T16:50:42.801Z,17.83
2024-05-09T16:53:09.882Z,17.84
2024-05-09T16:55:39.598Z,17.83
2024-05-09T16:58:08.121Z,17.81
2024-05-09T17:00:42.248Z,17.84
2024-05-09T17:03:14.796Z,17.84
2024-05-09T17:05:46.683Z,17.83
2024-05-09T17:08:15.350Z,17.83
2024-05-09T17:10:45.293Z,17.81
2024-05-09T17:13:15.105Z,17.83
2024-05-09T17:15:44.851Z,17.83
2024-05-09T17:18:17.150Z,17.84
2024-05-09T17:20:44.260Z,17.82
2024-05-09T17:23:15.071Z,17.83
2024-05-09T17:25:42.375Z,17.83
2024-05-09T17:28:12.478Z,17.83
2024-05-09T17:30:41.615Z,17.83
2024-05-09T17:33:13.282Z,17.82
2024-05-09T17:35:45.924Z,17.82
2024-05-09T17:38:15.763Z,17.82
2024-05-09T17:40:42.896Z,17.82
2024-05-09T17:43:12.921Z,17.81
2024-05-09T17:45:41.184Z,17.78
2024-05-09T17:48:12.426Z,17.81
2024-05-09T17:50:40.243Z,17.81
2024-05-09T17:53:13.251Z,17.81
2024-05-09T17:55:40.777Z,17.81
2024-05-09T17:58:10.847Z,17.80
2024-05-09T18:00:41.206Z,17.80
2024-05-09T18:03:13.981Z,17.81
2024-05-09T18:05:42.323Z,17.81
2024-05-09T18:08:15.452Z,17.80
2024-05-09T18:10:42.883Z,17.78
2024-05-09T18:13:12.941Z,17.80
2024-05-09T18:15:40.633Z,17.80
2024-05-09T18:18:10.907Z,17.80
2024-05-09T18:20:43.802Z,17.79
2024-05-09T18:23:19.372Z,17.80
2024-05-09T18:25:47.245Z,17.81
2024-05-09T18:28:17.869Z,17.80
2024-05-09T18:30:45.257Z,17.79
2024-05-09T18:33:15.282Z,17.79
2024-05-09T18:35:42.898Z,17.79
2024-05-09T18:38:12.637Z,17.79
2024-05-09T18:40:44.742Z,17.80
2024-05-09T18:43:16.961Z,17.79
2024-05-09T18:45:44.635Z,17.80
2024-05-09T18:48:14.568Z,17.79
2024-05-09T18:50:42.027Z,17.80
2024-05-09T18:53:13.447Z,17.79
2024-05-09T18:55:43.614Z,17.79
2024-05-09T18:58:13.469Z,17.79
2024-05-09T19:00:43.046Z,17.80
2024-05-09T19:03:16.032Z,17.76
2024-05-09T19:05:45.005Z,17.78
2024-05-09T19:08:15.933Z,17.79
2024-05-09T19:10:46.248Z,17.76
2024-05-09T19:13:16.467Z,17.78
2024-05-09T19:15:44.320Z,17.78
2024-05-09T19:18:15.177Z,17.78
2024-05-09T19:20:42.800Z,17.79
2024-05-09T19:23:12.931Z,17.78
2024-05-09T19:25:40.259Z,17.74
2024-05-09T19:28:12.771Z,17.78
2024-05-09T19:30:42.236Z,17.72
2024-05-09T19:33:13.939Z,17.77
2024-05-09T19:35:41.884Z,17.77
2024-05-09T19:38:12.332Z,17.75
2024-05-09T19:40:39.536Z,17.76
2024-05-09T19:43:12.169Z,17.77
2024-05-09T19:45:39.517Z,17.77
2024-05-09T19:48:10.589Z,17.76
2024-05-09T19:50:42.866Z,17.76
2024-05-09T19:53:14.494Z,17.74
2024-05-09T19:55:41.828Z,17.76
2024-05-09T19:58:14.252Z,17.75
2024-05-09T20:00:43.288Z,17.76
2024-05-09T20:03:14.925Z,17.75
2024-05-09T20:05:43.878Z,17.73
2024-05-09T20:08:13.627Z,17.76
2024-05-09T20:10:40.873Z,17.76
2024-05-09T20:13:10.671Z,17.75
2024-05-09T20:15:40.511Z,17.75
2024-05-09T20:18:10.448Z,17.75
2024-05-09T20:20:41.583Z,17.75
2024-05-09T20:23:15.266Z,17.76
2024-05-09T20:25:42.539Z,17.75
2024-05-09T20:28:12.384Z,17.74
2024-05-09T20:30:42.275Z,17.75
2024-05-09T20:33:12.438Z,17.74
2024-05-09T20:35:39.753Z,17.74
2024-05-09T20:38:09.389Z,17.74
2024-05-09T20:40:38.912Z,17.74
2024-05-09T20:43:10.644Z,17.74
2024-05-09T20:45:38.775Z,17.73
2024-05-09T20:48:12.046Z,17.74
2024-05-09T20:50:41.785Z,17.73
2024-05-09T20:53:13.955Z,17.73
2024-05-09T20:55:42.055Z,17.72
2024-05-09T20:58:12.169Z,17.73
2024-05-09T21:00:43.069Z,17.72
2024-05-09T21:03:18.030Z,17.72
2024-05-09T21:05:45.786Z,17.72
2024-05-09T21:08:15.880Z,17.71
2024-05-09T21:10:43.150Z,17.71
2024-05-09T21:13:13.183Z,17.72
2024-05-09T21:15:40.411Z,17.71
2024-05-09T21:18:10.603Z,17.71
2024-05-09T21:20:40.322Z,17.70
2024-05-09T21:23:09.998Z,17.67
2024-05-09T21:25:37.199Z,17.71
2024-05-09T21:28:07.260Z,17.70
2024-05-09T21:30:41.317Z,17.67
2024-05-09T21:33:14.427Z,17.65
2024-05-09T21:35:45.234Z,17.70
2024-05-09T21:38:16.019Z,17.66
2024-05-09T21:40:43.584Z,17.67
2024-05-09T21:43:13.482Z,17.66
2024-05-09T21:45:40.631Z,17.68
2024-05-09T21:48:11.205Z,17.70
2024-05-09T21:50:41.183Z,17.66
2024-05-09T21:53:14.760Z,17.68
2024-05-09T21:55:41.941Z,17.67
2024-05-09T21:58:11.771Z,17.65
2024-05-09T22:00:40.224Z,17.68
2024-05-09T22:03:11.325Z,17.65
2024-05-09T22:05:41.768Z,17.67
2024-05-09T22:08:14.400Z,17.65
2024-05-09T22:10:41.761Z,17.67
2024-05-09T22:13:11.609Z,17.66
2024-05-09T22:15:40.020Z,17.67
2024-05-09T22:18:11.595Z,17.66
2024-05-09T22:20:44.851Z,17.66
2024-05-09T22:23:18.421Z,17.65
2024-05-09T22:25:45.521Z,17.66
2024-05-09T22:28:16.259Z,17.66
2024-05-09T22:30:45.739Z,17.65
2024-05-09T22:33:15.987Z,17.47
2024-05-09T22:35:43.318Z,17.64
2024-05-09T22:38:13.056Z,17.64
2024-05-09T22:40:47.987Z,17.62
2024-05-09T22:43:23.153Z,17.64
2024-05-09T22:45:52.205Z,17.64
2024-05-09T22:48:23.294Z,17.64
2024-05-09T22:50:50.606Z,17.63
2024-05-09T22:53:20.597Z,17.63
2024-05-09T22:55:50.340Z,17.62
2024-05-09T22:58:20.778Z,17.63
2024-05-09T23:00:48.189Z,17.63
2024-05-09T23:03:21.117Z,17.63
2024-05-09T23:05:48.769Z,17.62
2024-05-09T23:08:18.467Z,17.62
2024-05-09T23:10:45.600Z,17.62
2024-05-09T23:13:18.102Z,17.62
2024-05-09T23:15:45.340Z,17.61
2024-05-09T23:18:15.139Z,17.61
2024-05-09T23:20:42.294Z,17.60
2024-05-09T23:23:12.389Z,17.59
2024-05-09T23:25:40.954Z,17.60
2024-05-09T23:28:10.891Z,17.60
2024-05-09T23:30:41.760Z,17.59
2024-05-09T23:33:13.254Z,17.59
2024-05-09T23:35:41.619Z,17.59
2024-05-09T23:38:11.338Z,17.59
2024-05-09T23:40:40.902Z,17.59
2024-05-09T23:43:12.677Z,17.58
2024-05-09T23:45:43.219Z,17.58
2024-05-09T23:48:13.237Z,17.55
2024-05-09T23:50:41.162Z,17.57
2024-05-09T23:53:11.494Z,17.57
2024-05-09T23:55:38.947Z,17.57
2024-05-09T23:58:09.068Z,17.57
